createdAt,value
2022-09-20T00:01:42.675Z,86.20
2022-09-20T00:04:11.725Z,87.00
2022-09-20T00:06:40.734Z,87.84
2022-09-20T00:09:09.046Z,87.87
2022-09-20T00:11:38.214Z,88.41
2022-09-20T00:14:09.953Z,88.61
2022-09-20T00:16:42.227Z,89.36
2022-09-20T00:19:17.884Z,90.22
2022-09-20T00:21:46.657Z,90.54
2022-09-20T00:24:15.602Z,90.49
2022-09-20T00:26:44.442Z,90.83
2022-09-20T00:29:14.395Z,90.86
2022-09-20T00:31:44.042Z,90.51
2022-09-20T00:34:31.091Z,91.59
2022-09-20T00:36:59.922Z,92.10
2022-09-20T00:39:28.562Z,91.69
2022-09-20T00:41:57.790Z,92.03
2022-09-20T00:44:51.898Z,91.29
2022-09-20T00:47:43.603Z,91.72
2022-09-20T00:50:35.908Z,92.17
2022-09-20T00:53:26.007Z,91.40
2022-09-20T00:55:59.677Z,91.43
2022-09-20T00:58:30.536Z,90.79
2022-09-20T01:00:59.866Z,90.10
2022-09-20T01:03:32.734Z,88.86
2022-09-20T01:06:05.817Z,89.04
2022-09-20T01:08:36.630Z,87.12
2022-09-20T01:11:05.209Z,86.90
2022-09-20T01:13:33.982Z,86.52
2022-09-20T01:16:04.183Z,85.98
2022-09-20T01:18:35.019Z,86.98
2022-09-20T01:21:05.102Z,87.26
2022-09-20T01:23:47.588Z,86.21
2022-09-20T01:26:51.441Z,90.47
2022-09-20T01:29:44.002Z,91.95
2022-09-20T01:32:20.967Z,91.34
2022-09-20T01:34:56.651Z,92.14
2022-09-20T01:38:09.813Z,91.51
2022-09-20T01:41:00.099Z,90.82
2022-09-20T01:43:36.894Z,91.11
2022-09-20T01:46:40.071Z,91.25
2022-09-20T01:49:32.986Z,92.39
2022-09-20T01:52:18.467Z,91.75
2022-09-20T01:55:31.389Z,91.23
2022-09-20T01:58:17.045Z,92.01
2022-09-20T02:00:48.747Z,91.30
2022-09-20T02:03:32.705Z,91.49
2022-09-20T02:06:25.597Z,91.35
2022-09-20T02:09:05.049Z,90.70
2022-09-20T02:12:11.500Z,90.07
2022-09-20T02:15:03.273Z,90.05
2022-09-20T02:17:40.259Z,89.49
2022-09-20T02:20:24.729Z,89.51
2022-09-20T02:22:53.362Z,88.75
2022-09-20T02:25:35.999Z,89.32
2022-09-20T02:28:18.782Z,88.31
2022-09-20T02:30:56.070Z,88.31
2022-09-20T02:33:46.172Z,89.01
2022-09-20T02:36:42.454Z,89.44
2022-09-20T02:39:34.593Z,88.91
2022-09-20T02:42:20.414Z,87.71
2022-09-20T02:45:15.907Z,87.69
2022-09-20T02:47:45.889Z,87.79
2022-09-20T02:50:28.606Z,87.76
2022-09-20T02:53:14.867Z,88.28
2022-09-20T02:56:05.078Z,88.60
2022-09-20T02:58:48.765Z,88.49
2022-09-20T03:01:26.308Z,88.24
2022-09-20T03:04:15.974Z,87.34
2022-09-20T03:06:55.606Z,87.64
2022-09-20T03:09:49.466Z,88.07
2022-09-20T03:12:20.656Z,88.26
2022-09-20T03:15:31.006Z,88.14
2022-09-20T03:18:18.673Z,87.76
2022-09-20T03:21:07.480Z,87.79
2022-09-20T03:23:56.532Z,87.48
2022-09-20T03:26:52.127Z,87.21
2022-09-20T03:29:38.866Z,86.56
2022-09-20T03:32:23.932Z,86.89
2022-09-20T03:35:28.067Z,87.76
2022-09-20T03:38:02.394Z,87.85
2022-09-20T03:40:35.119Z,87.79
2022-09-20T03:43:21.572Z,88.00
2022-09-20T03:46:19.834Z,88.64
2022-09-20T03:49:13.168Z,89.13
2022-09-20T03:52:18.705Z,90.17
2022-09-20T03:55:06.405Z,90.83
2022-09-20T03:57:52.238Z,91.63
2022-09-20T04:00:27.046Z,92.24
2022-09-20T04:03:10.073Z,92.40
2022-09-20T04:05:58.536Z,92.23
2022-09-20T04:08:40.571Z,92.31
2022-09-20T04:11:39.169Z,92.05
2022-09-20T04:14:36.057Z,91.96
2022-09-20T04:17:35.453Z,92.04
2022-09-20T04:20:16.762Z,91.67
2022-09-20T04:22:49.548Z,90.47
2022-09-20T04:25:22.812Z,90.21
2022-09-20T04:28:11.172Z,89.67
2022-09-20T04:30:45.247Z,89.93
2022-09-20T04:33:22.717Z,90.06
2022-09-20T04:36:30.638Z,90.51
2022-09-20T04:39:29.638Z,89.94
2022-09-20T04:42:24.168Z,90.04
2022-09-20T04:45:26.425Z,90.60
2022-09-20T04:48:21.818Z,90.14
2022-09-20T04:51:11.661Z,90.59
2022-09-20T04:54:19.215Z,90.43
2022-09-20T04:56:56.691Z,90.72
2022-09-20T04:59:59.585Z,91.06
2022-09-20T05:02:34.303Z,90.75
2022-09-20T05:05:17.655Z,91.26
2022-09-20T05:08:07.355Z,91.15
2022-09-20T05:10:54.111Z,91.19
2022-09-20T05:13:32.692Z,90.58
2022-09-20T05:16:19.973Z,90.50
2022-09-20T05:19:16.896Z,90.52
2022-09-20T05:21:45.397Z,89.96
2022-09-20T05:24:29.884Z,90.26
2022-09-20T05:27:15.992Z,89.55
2022-09-20T05:30:16.599Z,89.29
2022-09-20T05:32:53.832Z,88.84
2022-09-20T05:35:35.809Z,89.04
2022-09-20T05:38:32.579Z,88.71
2022-09-20T05:41:11.593Z,88.35
2022-09-20T05:44:06.386Z,88.22
2022-09-20T05:46:51.438Z,87.95
2022-09-20T05:49:41.660Z,87.58
2022-09-20T05:52:44.371Z,87.72
2022-09-20T05:55:45.229Z,87.20
2022-09-20T05:58:36.233Z,87.72
2022-09-20T06:01:33.918Z,87.11
2022-09-20T06:04:33.099Z,87.52
2022-09-20T06:07:24.251Z,87.72
2022-09-20T06:10:27.474Z,87.98
2022-09-20T06:13:04.870Z,88.14
2022-09-20T06:15:54.097Z,87.95
2022-09-20T06:18:30.145Z,88.22
2022-09-20T06:21:17.488Z,87.94
2022-09-20T06:23:46.637Z,88.03
2022-09-20T06:26:29.482Z,88.11
2022-09-20T06:29:04.767Z,88.34
2022-09-20T06:31:33.508Z,89.12
2022-09-20T06:34:12.020Z,88.35
2022-09-20T06:37:26.926Z,88.45
2022-09-20T06:40:32.639Z,88.58
2022-09-20T06:43:02.120Z,88.96
2022-09-20T06:45:31.831Z,88.40
2022-09-20T06:48:03.254Z,88.66
2022-09-20T06:50:32.218Z,87.35
2022-09-20T06:53:00.792Z,87.38
2022-09-20T06:55:33.914Z,87.63
2022-09-20T06:58:02.471Z,88.28
2022-09-20T07:00:31.766Z,88.02
2022-09-20T07:03:00.310Z,88.28
2022-09-20T07:05:29.384Z,88.02
2022-09-20T07:08:02.430Z,88.38
2022-09-20T07:10:31.206Z,88.07
2022-09-20T07:13:01.591Z,87.57
2022-09-20T07:15:30.934Z,88.31
2022-09-20T07:18:01.426Z,88.12
2022-09-20T07:20:30.006Z,88.29
2022-09-20T07:22:58.643Z,87.96
2022-09-20T07:25:27.222Z,88.32
2022-09-20T07:27:56.113Z,88.25
2022-09-20T07:30:24.989Z,87.84
2022-09-20T07:32:53.719Z,87.65
2022-09-20T07:35:22.319Z,87.49
2022-09-20T07:37:57.165Z,86.95
2022-09-20T07:40:27.983Z,87.57
2022-09-20T07:42:59.312Z,87.19
2022-09-20T07:45:27.715Z,87.94
2022-09-20T07:47:56.473Z,87.90
2022-09-20T07:50:25.329Z,87.80
2022-09-20T07:52:57.216Z,87.42
2022-09-20T07:55:26.209Z,88.50
2022-09-20T07:57:56.281Z,90.05
2022-09-20T08:00:24.786Z,90.04
2022-09-20T08:03:00.294Z,90.41
2022-09-20T08:05:29.139Z,89.88
2022-09-20T08:07:57.683Z,90.16
2022-09-20T08:10:26.585Z,89.51
2022-09-20T08:15:44.673Z,89.61
2022-09-20T08:18:14.487Z,90.11
2022-09-20T08:20:43.042Z,90.17
2022-09-20T08:23:23.511Z,90.47
2022-09-20T08:25:51.988Z,88.96
2022-09-20T08:28:20.585Z,89.19
2022-09-20T08:30:49.086Z,89.07
2022-09-20T08:33:17.978Z,88.97
2022-09-20T08:35:51.002Z,88.85
2022-09-20T08:41:21.273Z,88.80
2022-09-20T08:43:56.429Z,89.03
2022-09-20T08:46:30.589Z,88.98
2022-09-20T08:49:01.122Z,89.33
2022-09-20T08:51:34.433Z,89.46
2022-09-20T08:54:02.878Z,89.90
2022-09-20T08:56:37.552Z,89.33
2022-09-20T08:59:09.309Z,89.37
2022-09-20T09:01:37.919Z,89.86
2022-09-20T09:04:26.953Z,89.72
2022-09-20T09:06:55.583Z,89.74
2022-09-20T09:09:30.362Z,90.49
2022-09-20T09:12:00.150Z,90.46
2022-09-20T09:14:50.994Z,90.52
2022-09-20T09:17:28.466Z,90.94
2022-09-20T09:20:00.694Z,90.47
2022-09-20T09:22:41.893Z,90.50
2022-09-20T09:25:18.338Z,90.69
2022-09-20T09:28:15.629Z,90.71
2022-09-20T09:30:46.638Z,89.86
2022-09-20T09:33:32.217Z,89.78
2022-09-20T09:36:07.795Z,90.09
2022-09-20T09:38:41.416Z,89.71
2022-09-20T09:41:31.187Z,89.95
2022-09-20T09:44:11.646Z,90.26
2022-09-20T09:46:44.128Z,89.86
2022-09-20T09:49:25.777Z,90.28
2022-09-20T09:52:17.095Z,90.34
2022-09-20T09:54:51.893Z,89.83
2022-09-20T09:57:50.006Z,90.77
2022-09-20T10:00:22.503Z,91.08
2022-09-20T10:03:20.153Z,91.11
2022-09-20T10:06:06.711Z,90.45
2022-09-20T10:09:00.710Z,91.21
2022-09-20T10:11:59.990Z,90.96
2022-09-20T10:14:55.321Z,91.24
2022-09-20T10:17:38.836Z,91.37
2022-09-20T10:20:41.346Z,90.83
2022-09-20T10:23:45.147Z,91.04
2022-09-20T10:26:47.361Z,90.73
2022-09-20T10:29:22.307Z,90.94
2022-09-20T10:32:20.294Z,90.96
2022-09-20T10:35:23.098Z,90.94
2022-09-20T10:38:10.344Z,90.86
2022-09-20T10:41:01.443Z,91.03
2022-09-20T10:43:59.272Z,90.97
2022-09-20T10:46:39.816Z,91.14
2022-09-20T10:49:26.684Z,90.90
2022-09-20T10:52:14.425Z,90.66
2022-09-20T10:54:58.391Z,91.51
2022-09-20T10:58:09.813Z,91.11
2022-09-20T11:01:13.190Z,91.40
2022-09-20T11:04:25.681Z,91.50
2022-09-20T11:07:10.406Z,91.44
2022-09-20T11:09:45.177Z,91.37
2022-09-20T11:12:36.257Z,91.32
2022-09-20T11:15:16.502Z,91.26
2022-09-20T11:17:54.463Z,91.83
2022-09-20T11:20:30.585Z,91.88
2022-09-20T11:23:26.524Z,92.07
2022-09-20T11:26:06.609Z,92.12
2022-09-20T11:29:08.866Z,91.96
2022-09-20T11:31:48.073Z,92.25
2022-09-20T11:34:26.750Z,92.42
2022-09-20T11:37:02.107Z,92.14
2022-09-20T11:39:54.586Z,91.88
2022-09-20T11:42:28.562Z,91.84
2022-09-20T11:44:57.438Z,91.71
2022-09-20T11:47:57.532Z,92.21
2022-09-20T11:50:39.877Z,92.41
2022-09-20T11:53:40.416Z,92.44
2022-09-20T11:56:36.570Z,93.13
2022-09-20T11:59:23.001Z,92.77
2022-09-20T12:01:58.278Z,93.19
2022-09-20T12:04:36.379Z,93.66
2022-09-20T12:07:11.335Z,93.75
2022-09-20T12:09:45.760Z,94.14
2022-09-20T12:12:29.004Z,94.87
2022-09-20T12:15:00.205Z,95.20
2022-09-20T12:18:09.395Z,95.81
2022-09-20T12:20:40.623Z,96.28
2022-09-20T12:23:43.537Z,96.72
2022-09-20T12:26:22.097Z,96.99
2022-09-20T12:28:56.833Z,97.28
2022-09-20T12:31:32.416Z,97.51
2022-09-20T12:34:13.474Z,97.92
2022-09-20T12:37:06.621Z,98.60
2022-09-20T12:39:38.146Z,98.78
2022-09-20T12:42:31.973Z,98.97
2022-09-20T12:45:22.584Z,99.23
2022-09-20T12:47:58.148Z,99.58
2022-09-20T12:50:45.055Z,99.73
2022-09-20T12:53:18.005Z,100.00
2022-09-20T12:56:05.998Z,100.00
2022-09-20T12:58:54.498Z,100.00
2022-09-20T13:01:23.738Z,100.00
2022-09-20T13:03:52.594Z,100.00
2022-09-20T13:06:21.134Z,100.00
2022-09-20T13:08:49.055Z,100.00
2022-09-20T13:11:19.809Z,100.00
2022-09-20T13:14:10.653Z,100.00
2022-09-20T13:16:54.174Z,100.00
2022-09-20T13:19:40.315Z,100.00
2022-09-20T13:22:14.378Z,100.00
2022-09-20T13:24:46.969Z,100.00
2022-09-20T13:27:30.075Z,100.00
2022-09-20T13:30:20.931Z,100.00
2022-09-20T13:32:50.424Z,100.00
2022-09-20T13:35:32.967Z,100.00
2022-09-20T13:38:08.953Z,100.00
2022-09-20T13:40:50.294Z,100.00
2022-09-20T13:43:31.001Z,100.00
2022-09-20T13:46:11.395Z,100.00
2022-09-20T13:48:41.599Z,100.00
2022-09-20T13:51:21.676Z,100.00
2022-09-20T13:53:50.012Z,100.00
2022-09-20T13:56:30.894Z,100.00
2022-09-20T13:59:06.648Z,100.00
2022-09-20T14:01:37.122Z,100.00
2022-09-20T14:04:28.297Z,100.00
2022-09-20T14:06:59.131Z,100.00
2022-09-20T14:09:34.554Z,100.00
2022-09-20T14:12:06.169Z,100.00
2022-09-20T14:14:36.999Z,100.00
2022-09-20T14:17:09.935Z,100.00
2022-09-20T14:19:43.118Z,100.00
2022-09-20T14:22:22.174Z,100.00
2022-09-20T14:25:07.317Z,100.00
2022-09-20T14:27:36.175Z,100.00
2022-09-20T14:30:05.576Z,100.00
2022-09-20T14:32:37.943Z,100.00
2022-09-20T14:35:16.166Z,100.00
2022-09-20T14:37:46.672Z,100.00
2022-09-20T14:40:42.236Z,100.00
2022-09-20T14:43:36.178Z,100.00
2022-09-20T14:46:10.102Z,100.00
2022-09-20T14:48:44.297Z,100.00
2022-09-20T14:51:28.035Z,100.00
2022-09-20T14:54:08.132Z,99.32
2022-09-20T14:56:40.821Z,99.14
2022-09-20T14:59:22.391Z,98.47
2022-09-20T15:02:06.659Z,98.00
2022-09-20T15:04:39.005Z,97.16
2022-09-20T15:07:11.877Z,96.42
2022-09-20T15:09:41.052Z,95.91
2022-09-20T15:12:20.856Z,95.53
2022-09-20T15:14:50.784Z,94.55
2022-09-20T15:17:21.975Z,94.81
2022-09-20T15:19:51.666Z,93.81
2022-09-20T15:22:20.002Z,93.37
2022-09-20T15:24:48.679Z,92.91
2022-09-20T15:27:17.426Z,92.55
2022-09-20T15:29:45.753Z,92.37
2022-09-20T15:32:14.574Z,92.13
2022-09-20T15:34:43.377Z,91.79
2022-09-20T15:37:11.995Z,90.09
2022-09-20T15:39:40.577Z,90.24
2022-09-20T15:42:09.275Z,89.85
2022-09-20T15:44:37.819Z,89.60
2022-09-20T15:47:06.492Z,88.77
2022-09-20T15:49:34.825Z,89.21
2022-09-20T15:52:03.642Z,87.58
2022-09-20T15:54:32.177Z,87.14
2022-09-20T15:57:00.934Z,86.95
2022-09-20T15:59:30.556Z,86.26
2022-09-20T16:01:59.104Z,85.25
2022-09-20T16:04:31.287Z,84.72
2022-09-20T16:06:59.870Z,84.69
2022-09-20T16:09:28.600Z,84.29
2022-09-20T16:11:59.847Z,84.29
2022-09-20T16:14:28.953Z,83.86
2022-09-20T16:16:57.931Z,82.67
2022-09-20T16:19:27.612Z,83.74
2022-09-20T16:21:59.206Z,82.13
2022-09-20T16:24:33.614Z,82.22
2022-09-20T16:27:03.831Z,81.88
2022-09-20T16:29:33.395Z,80.57
2022-09-20T16:32:04.907Z,80.37
2022-09-20T16:34:36.391Z,79.67
2022-09-20T16:37:24.127Z,79.75
2022-09-20T16:39:52.698Z,78.76
2022-09-20T16:42:21.985Z,79.37
2022-09-20T16:44:50.525Z,77.76
2022-09-20T16:47:23.492Z,78.07
2022-09-20T16:49:54.485Z,77.90
2022-09-20T16:52:23.322Z,76.34
2022-09-20T16:54:54.980Z,75.51
2022-09-20T16:57:23.767Z,74.53
2022-09-20T16:59:55.398Z,73.50
2022-09-20T17:02:24.057Z,73.33
2022-09-20T17:04:53.188Z,73.45
2022-09-20T17:07:24.865Z,72.75
2022-09-20T17:09:54.816Z,73.11
2022-09-20T17:12:26.552Z,71.40
2022-09-20T17:14:55.221Z,71.60
2022-09-20T17:17:23.903Z,71.36
2022-09-20T17:19:56.162Z,70.97
2022-09-20T17:22:25.015Z,71.89
2022-09-20T17:24:54.073Z,70.96
2022-09-20T17:27:23.313Z,70.15
2022-09-20T17:29:51.772Z,67.31
2022-09-20T17:32:20.568Z,68.89
2022-09-20T17:34:49.142Z,68.46
2022-09-20T17:37:18.249Z,68.18
2022-09-20T17:39:46.834Z,66.34
2022-09-20T17:42:15.455Z,67.03
2022-09-20T17:44:43.998Z,64.99
2022-09-20T17:47:12.513Z,64.89
2022-09-20T17:49:41.951Z,65.22
2022-09-20T17:52:12.424Z,66.34
2022-09-20T17:54:41.463Z,62.95
2022-09-20T17:57:10.069Z,62.38
2022-09-20T17:59:38.628Z,61.89
2022-09-20T18:02:07.159Z,64.57
2022-09-20T18:04:35.920Z,63.22
2022-09-20T18:07:05.413Z,60.33
2022-09-20T18:09:34.102Z,61.15
2022-09-20T18:12:02.988Z,61.52
2022-09-20T18:14:32.453Z,60.25
2022-09-20T18:17:04.856Z,61.45
2022-09-20T18:19:36.923Z,59.56
2022-09-20T18:22:05.763Z,61.27
2022-09-20T18:24:34.506Z,59.07
2022-09-20T18:27:03.517Z,60.97
2022-09-20T18:29:37.790Z,60.63
2022-09-20T18:32:06.671Z,59.13
2022-09-20T18:34:35.263Z,56.28
2022-09-20T18:37:05.758Z,57.74
2022-09-20T18:39:36.022Z,59.76
2022-09-20T18:42:05.622Z,59.08
2022-09-20T18:44:35.068Z,57.99
2022-09-20T18:47:05.055Z,57.26
2022-09-20T18:49:34.444Z,58.86
2022-09-20T18:52:03.414Z,58.86
2022-09-20T18:54:33.571Z,59.15
2022-09-20T18:57:02.526Z,59.20
2022-09-20T18:59:31.376Z,58.06
2022-09-20T19:02:21.730Z,56.50
2022-09-20T19:05:14.229Z,55.69
2022-09-20T19:08:14.268Z,57.60
2022-09-20T19:10:43.232Z,55.33
2022-09-20T19:13:46.592Z,54.21
2022-09-20T19:16:31.723Z,54.76
2022-09-20T19:19:16.276Z,53.42
2022-09-20T19:21:44.945Z,51.21
2022-09-20T19:24:34.745Z,53.62
2022-09-20T19:27:03.453Z,52.03
2022-09-20T19:29:32.053Z,57.80
2022-09-20T19:32:02.104Z,53.33
2022-09-20T19:34:33.344Z,53.66
2022-09-20T19:37:20.358Z,51.98
2022-09-20T19:40:13.418Z,55.38
2022-09-20T19:43:31.686Z,55.51
2022-09-20T19:46:38.157Z,55.65
2022-09-20T19:49:15.689Z,56.79
2022-09-20T19:51:45.007Z,54.69
2022-09-20T19:54:18.951Z,54.68
2022-09-20T19:56:58.998Z,52.32
2022-09-20T19:59:29.259Z,53.11
2022-09-20T20:01:58.806Z,53.12
2022-09-20T20:04:27.825Z,53.52
2022-09-20T20:07:01.676Z,52.54
2022-09-20T20:09:41.978Z,52.91
2022-09-20T20:12:25.990Z,53.57
2022-09-20T20:15:23.596Z,51.15
2022-09-20T20:18:14.531Z,53.43
2022-09-20T20:20:49.495Z,51.49
2022-09-20T20:23:36.123Z,52.02
2022-09-20T20:26:25.387Z,50.66
2022-09-20T20:28:54.299Z,52.26
2022-09-20T20:31:22.534Z,51.58
2022-09-20T20:33:51.186Z,52.70
2022-09-20T20:36:20.132Z,51.81
2022-09-20T20:38:52.096Z,50.64
2022-09-20T20:41:22.613Z,53.12
2022-09-20T20:43:57.725Z,49.90
2022-09-20T20:46:27.201Z,49.98
2022-09-20T20:48:55.838Z,50.03
2022-09-20T20:51:24.468Z,50.35
2022-09-20T20:53:56.157Z,50.56
2022-09-20T20:56:27.253Z,45.22
2022-09-20T20:58:56.279Z,48.42
2022-09-20T21:01:28.963Z,48.68
2022-09-20T21:03:58.955Z,47.80
2022-09-20T21:06:33.240Z,46.60
2022-09-20T21:09:02.941Z,44.55
2022-09-20T21:11:34.526Z,45.08
2022-09-20T21:14:08.255Z,44.93
2022-09-20T21:16:39.058Z,46.43
2022-09-20T21:19:08.344Z,47.11
2022-09-20T21:21:40.102Z,45.33
2022-09-20T21:24:10.612Z,42.89
2022-09-20T21:26:39.910Z,43.84
2022-09-20T21:29:12.380Z,45.74
2022-09-20T21:31:46.010Z,46.21
2022-09-20T21:34:16.578Z,45.10
2022-09-20T21:36:48.655Z,45.28
2022-09-20T21:39:17.185Z,44.70
2022-09-20T21:41:47.810Z,44.01
2022-09-20T21:44:16.903Z,45.44
2022-09-20T21:46:46.079Z,46.97
2022-09-20T21:49:15.960Z,46.63
2022-09-20T21:51:45.316Z,46.12
2022-09-20T21:54:14.049Z,45.18
2022-09-20T21:56:42.777Z,44.75
2022-09-20T21:59:11.525Z,46.22
2022-09-20T22:01:42.336Z,44.93
2022-09-20T22:04:13.381Z,44.64
2022-09-20T22:06:46.453Z,43.59
2022-09-20T22:09:18.715Z,44.02
2022-09-20T22:11:50.152Z,44.70
2022-09-20T22:14:21.175Z,46.66
2022-09-20T22:16:52.542Z,47.62
2022-09-20T22:19:24.089Z,46.95
2022-09-20T22:21:53.109Z,49.04
2022-09-20T22:24:22.203Z,49.58
2022-09-20T22:26:52.446Z,49.94
2022-09-20T22:29:21.595Z,46.58
2022-09-20T22:31:51.394Z,44.58
2022-09-20T22:34:22.417Z,43.79
2022-09-20T22:36:51.223Z,45.24
2022-09-20T22:39:20.046Z,45.75
2022-09-20T22:41:52.394Z,46.14
2022-09-20T22:44:21.086Z,46.99
2022-09-20T22:46:49.610Z,46.02
2022-09-20T22:49:17.967Z,44.62
2022-09-20T22:51:46.663Z,44.42
2022-09-20T22:54:15.350Z,45.59
2022-09-20T22:56:43.702Z,46.89
2022-09-20T22:59:14.963Z,47.16
2022-09-20T23:01:46.160Z,46.72
2022-09-20T23:04:17.882Z,45.79
2022-09-20T23:06:55.974Z,45.27
2022-09-20T23:09:26.650Z,45.65
2022-09-20T23:11:55.350Z,46.68
2022-09-20T23:14:24.706Z,44.01
2022-09-20T23:16:54.400Z,45.14
2022-09-20T23:19:23.063Z,47.02
2022-09-20T23:21:51.788Z,46.61
2022-09-20T23:24:20.301Z,46.14
2022-09-20T23:26:48.948Z,45.99
2022-09-20T23:29:18.649Z,45.18
2022-09-20T23:31:48.787Z,45.37
2022-09-20T23:34:19.150Z,45.50
2022-09-20T23:36:48.280Z,45.89
2022-09-20T23:39:17.490Z,45.44
2022-09-20T23:41:50.614Z,45.51
2022-09-20T23:44:19.738Z,46.81
2022-09-20T23:46:48.288Z,46.21
2022-09-20T23:49:16.932Z,47.28
2022-09-20T23:51:46.254Z,46.94
2022-09-20T23:54:15.019Z,47.19
2022-09-20T23:56:44.102Z,46.68
2022-09-20T23:59:12.466Z,47.68
